Gordon Reid — CGBR — position and weather

sailwx.info

Track history (hours):
 
Tides and Currents Weather Stations Pressure Air Temp Water Temp Dewpoint Dewpoint Depression Visibility Wind Speed Wind Dir Waves Ship Positions

Gordon Reid

Last reported at 2015-Apr-24 21:32 UTC. Time now 2015-Apr-28 06:52 UTC.
Position N 51°11' W 127°57'.

Length 49.95 m; beam 11 m; draft 5.4 m.

Type: SAR. MMSI: 316094000.

Date/timePositionNaut miles runAvg speedWind from/ knotsBaromVisibWave heightAir tempDewpointWater temp
2015-Apr-24 21:32N 51°11' W 127°57'8 6.8
2015-Apr-24 20:23N 51°04' W 128°03'16 5.6
2015-Apr-24 17:33N 50°52' W 127°48'9 9.1
2015-Apr-24 16:33N 50°48' W 127°35'5 5.3
2015-Apr-24 15:32N 50°45' W 127°28'2 1.7
2015-Apr-24 14:29N 50°43' W 127°29'0 0.0
2015-Apr-24 00:11N 50°43' W 127°29'0 0.0
2015-Apr-23 23:29N 50°43' W 127°29'0 0.0
2015-Apr-23 07:05N 50°43' W 127°29'0 0.0
2015-Apr-23 06:29N 50°43' W 127°29'0 0.0
2015-Apr-23 03:17N 50°43' W 127°29'0 0.0
2015-Apr-22 20:29N 50°43' W 127°29'1 0.8
2015-Apr-22 19:31N 50°44' W 127°28'0 0.4
2015-Apr-22 18:31N 50°43' W 127°28'0 0.0
2015-Apr-22 17:31N 50°43' W 127°28'0 0.0
2015-Apr-22 16:31N 50°43' W 127°28'0 0.1
2015-Apr-22 15:33N 50°43' W 127°28'9 8.7
2015-Apr-22 14:33N 50°49' W 127°38'2 2.1
2015-Apr-22 13:32N 50°51' W 127°40'0 0.0
2015-Apr-22 12:32N 50°51' W 127°40'0 0.0
2015-Apr-22 11:32N 50°51' W 127°40'0 0.0
2015-Apr-22 10:32N 50°51' W 127°40'0 0.0
2015-Apr-22 09:32N 50°51' W 127°40'0 0.0
2015-Apr-22 08:26N 50°51' W 127°40'0 0.0
2015-Apr-22 07:32N 50°51' W 127°40'0 0.0
2015-Apr-22 06:32N 50°51' W 127°40'0 0.0
2015-Apr-22 05:32N 50°51' W 127°40'0 0.0
2015-Apr-22 04:32N 50°51' W 127°40'0 0.0
2015-Apr-22 03:29N 50°51' W 127°40'0 0.0
2015-Apr-22 02:23N 50°51' W 127°40'0 0.0
2015-Apr-22 01:33N 50°51' W 127°40'6 5.6
2015-Apr-22 00:33N 50°51' W 127°49'5 2.5
2015-Apr-21 22:20N 50°53' W 127°57'8 2.6
2015-Apr-21 19:21N 50°56' W 128°08'2 1.9
2015-Apr-21 18:33N 50°55' W 128°06'  
Track history (hours):
 
Tides and Currents Weather Stations Pressure Air Temp Water Temp Dewpoint Dewpoint Depression Visibility Wind Speed Wind Dir Waves Ship Positions

Gordon Reid

Last reported at 2015-Apr-24 21:32 UTC. Time now 2015-Apr-28 06:52 UTC.
Position N 51°11' W 127°57'.

Length 49.95 m; beam 11 m; draft 5.4 m.

Type: SAR. MMSI: 316094000.

Date/timePositionNaut miles runAvg speedWind from/ knotsBaromVisibWave heightAir tempDewpointWater temp
2015-Apr-24 21:32N 51°11' W 127°57'8 6.8
2015-Apr-24 20:23N 51°04' W 128°03'16 5.6
2015-Apr-24 17:33N 50°52' W 127°48'9 9.1
2015-Apr-24 16:33N 50°48' W 127°35'5 5.3
2015-Apr-24 15:32N 50°45' W 127°28'2 1.7
2015-Apr-24 14:29N 50°43' W 127°29'0 0.0
2015-Apr-24 00:11N 50°43' W 127°29'0 0.0
2015-Apr-23 23:29N 50°43' W 127°29'0 0.0
2015-Apr-23 07:05N 50°43' W 127°29'0 0.0
2015-Apr-23 06:29N 50°43' W 127°29'0 0.0
2015-Apr-23 03:17N 50°43' W 127°29'0 0.0
2015-Apr-22 20:29N 50°43' W 127°29'1 0.8
2015-Apr-22 19:31N 50°44' W 127°28'0 0.4
2015-Apr-22 18:31N 50°43' W 127°28'0 0.0
2015-Apr-22 17:31N 50°43' W 127°28'0 0.0
2015-Apr-22 16:31N 50°43' W 127°28'0 0.1
2015-Apr-22 15:33N 50°43' W 127°28'9 8.7
2015-Apr-22 14:33N 50°49' W 127°38'2 2.1
2015-Apr-22 13:32N 50°51' W 127°40'0 0.0
2015-Apr-22 12:32N 50°51' W 127°40'0 0.0
2015-Apr-22 11:32N 50°51' W 127°40'0 0.0
2015-Apr-22 10:32N 50°51' W 127°40'0 0.0
2015-Apr-22 09:32N 50°51' W 127°40'0 0.0
2015-Apr-22 08:26N 50°51' W 127°40'0 0.0
2015-Apr-22 07:32N 50°51' W 127°40'0 0.0
2015-Apr-22 06:32N 50°51' W 127°40'0 0.0
2015-Apr-22 05:32N 50°51' W 127°40'0 0.0
2015-Apr-22 04:32N 50°51' W 127°40'0 0.0
2015-Apr-22 03:29N 50°51' W 127°40'0 0.0
2015-Apr-22 02:23N 50°51' W 127°40'0 0.0
2015-Apr-22 01:33N 50°51' W 127°40'6 5.6
2015-Apr-22 00:33N 50°51' W 127°49'5 2.5
2015-Apr-21 22:20N 50°53' W 127°57'8 2.6
2015-Apr-21 19:21N 50°56' W 128°08'2 1.9
2015-Apr-21 18:33N 50°55' W 128°06'  

Dump ship's entire track history